createdAt,value
2018-05-26T00:00:39.591Z,9.37
2018-05-26T00:03:08.387Z,9.13
2018-05-26T00:05:36.872Z,8.90
2018-05-26T00:08:05.326Z,8.77
2018-05-26T00:10:33.936Z,8.20
2018-05-26T00:13:02.364Z,9.23
2018-05-26T00:15:30.796Z,8.37
2018-05-26T00:17:59.531Z,9.50
2018-05-26T00:20:28.135Z,9.43
2018-05-26T00:23:02.715Z,9.40
2018-05-26T00:25:31.201Z,9.00
2018-05-26T00:27:59.610Z,8.47
2018-05-26T00:30:28.492Z,8.47
2018-05-26T00:32:56.896Z,8.93
2018-05-26T00:35:25.316Z,9.47
2018-05-26T00:37:54.044Z,9.13
2018-05-26T00:40:22.447Z,9.93
2018-05-26T00:42:50.829Z,9.87
2018-05-26T00:45:19.674Z,10.17
2018-05-26T00:47:48.192Z,9.33
2018-05-26T00:50:16.599Z,9.53
2018-05-26T00:52:45.340Z,9.10
2018-05-26T00:55:13.783Z,9.87
2018-05-26T00:57:42.200Z,10.03
2018-05-26T01:02:45.255Z,9.40
2018-05-26T01:05:14.081Z,10.40
2018-05-26T01:07:42.547Z,11.07
2018-05-26T01:10:10.980Z,12.17
2018-05-26T01:12:39.571Z,12.20
2018-05-26T01:15:08.016Z,11.20
2018-05-26T01:17:36.423Z,12.67
2018-05-26T01:20:05.278Z,12.50
2018-05-26T01:22:33.694Z,12.57
2018-05-26T01:25:02.113Z,13.00
2018-05-26T01:27:30.889Z,12.17
2018-05-26T01:29:59.371Z,12.67
2018-05-26T01:32:27.802Z,13.57
2018-05-26T01:34:56.581Z,12.13
2018-05-26T01:37:25.016Z,12.73
2018-05-26T01:39:53.484Z,12.40
2018-05-26T01:42:22.349Z,11.73
2018-05-26T01:44:50.810Z,12.37
2018-05-26T01:47:19.226Z,12.00
2018-05-26T01:49:47.984Z,12.77
2018-05-26T01:52:16.419Z,12.23
2018-05-26T01:54:44.821Z,12.23
2018-05-26T01:57:13.632Z,12.97
2018-05-26T01:59:42.063Z,13.60
2018-05-26T02:02:10.473Z,13.60
2018-05-26T02:04:38.912Z,13.43
2018-05-26T02:07:07.374Z,10.60
2018-05-26T02:09:35.796Z,10.10
2018-05-26T02:12:04.239Z,9.40
2018-05-26T02:14:32.650Z,9.87
2018-05-26T02:17:01.068Z,9.53
2018-05-26T02:19:29.778Z,10.00
2018-05-26T02:21:58.191Z,9.50
2018-05-26T02:24:26.586Z,9.63
2018-05-26T02:26:55.433Z,9.67
2018-05-26T02:29:23.827Z,7.93
2018-05-26T02:31:52.267Z,8.77
2018-05-26T02:34:20.695Z,8.50
2018-05-26T02:36:49.089Z,9.30
2018-05-26T02:39:17.516Z,11.00
2018-05-26T02:41:45.960Z,9.17
2018-05-26T02:44:14.360Z,10.10
2018-05-26T02:46:42.782Z,10.67
2018-05-26T02:49:11.561Z,10.17
2018-05-26T02:51:39.963Z,10.23
2018-05-26T02:54:08.366Z,9.23
2018-05-26T02:56:37.020Z,8.67
2018-05-26T02:59:05.484Z,9.50
2018-05-26T03:01:33.881Z,8.93
2018-05-26T03:04:02.143Z,9.33
2018-05-26T03:06:36.186Z,8.53
2018-05-26T03:09:10.470Z,8.47
2018-05-26T03:11:44.580Z,8.27
2018-05-26T03:14:18.624Z,8.07
2018-05-26T03:16:48.594Z,8.80
2018-05-26T03:19:17.007Z,9.00
2018-05-26T03:21:45.774Z,8.97
2018-05-26T03:24:14.194Z,10.47
2018-05-26T03:26:42.605Z,8.70
2018-05-26T03:29:11.232Z,8.17
2018-05-26T03:31:39.671Z,9.23
2018-05-26T03:34:08.055Z,8.17
2018-05-26T03:36:36.484Z,8.10
2018-05-26T03:39:05.614Z,7.70
2018-05-26T03:41:34.029Z,8.53
2018-05-26T03:44:02.479Z,9.23
2018-05-26T03:46:30.888Z,8.67
2018-05-26T03:48:59.303Z,9.03
2018-05-26T03:51:28.059Z,8.83
2018-05-26T03:53:56.607Z,9.60
2018-05-26T03:56:37.225Z,9.00
2018-05-26T03:59:17.541Z,9.47
2018-05-26T04:01:46.291Z,9.30
2018-05-26T04:04:15.541Z,8.87
2018-05-26T04:06:43.930Z,10.53
2018-05-26T04:09:12.394Z,9.77
2018-05-26T04:11:40.841Z,9.40
2018-05-26T04:14:09.292Z,9.97
2018-05-26T04:16:37.859Z,10.40
2018-05-26T04:19:06.264Z,10.83
2018-05-26T04:21:34.691Z,11.57
2018-05-26T04:24:03.531Z,11.00
2018-05-26T04:26:31.966Z,10.77
2018-05-26T04:29:00.387Z,11.17
2018-05-26T04:31:29.192Z,11.30
2018-05-26T04:33:57.646Z,11.23
2018-05-26T04:36:26.077Z,11.30
2018-05-26T04:38:54.842Z,13.47
2018-05-26T04:41:23.270Z,13.27
2018-05-26T04:43:51.743Z,13.37
2018-05-26T04:46:20.470Z,14.73
2018-05-26T04:48:48.902Z,14.97
2018-05-26T04:51:18.302Z,14.33
2018-05-26T04:53:47.159Z,13.80
2018-05-26T04:56:15.623Z,13.37
2018-05-26T04:58:44.079Z,13.77
2018-05-26T05:01:12.712Z,13.23
2018-05-26T05:03:41.105Z,13.67
2018-05-26T05:06:09.522Z,13.27
2018-05-26T05:08:37.985Z,14.10
2018-05-26T05:11:06.485Z,12.90
2018-05-26T05:13:34.921Z,13.03
2018-05-26T05:16:03.384Z,13.13
2018-05-26T05:18:32.180Z,12.77
2018-05-26T05:21:00.694Z,12.20
2018-05-26T05:23:29.361Z,12.63
2018-05-26T05:25:57.809Z,12.97
2018-05-26T05:28:26.231Z,11.23
2018-05-26T05:30:54.983Z,11.03
2018-05-26T05:33:23.399Z,13.13
2018-05-26T05:35:51.843Z,13.10
2018-05-26T05:38:20.460Z,12.37
2018-05-26T05:40:49.110Z,11.47
2018-05-26T05:43:17.906Z,8.73
2018-05-26T05:45:46.879Z,8.90
2018-05-26T05:48:15.318Z,8.03
2018-05-26T05:50:43.815Z,9.33
2018-05-26T05:53:12.563Z,6.60
2018-05-26T05:55:41.053Z,7.53
2018-05-26T05:58:09.448Z,7.33
2018-05-26T06:00:38.436Z,7.23
2018-05-26T06:03:07.917Z,7.37
2018-05-26T06:05:36.329Z,7.87
2018-05-26T06:08:04.930Z,7.17
2018-05-26T06:10:33.406Z,7.33
2018-05-26T06:13:01.840Z,7.43
2018-05-26T06:15:30.691Z,7.50
2018-05-26T06:17:59.143Z,6.97
2018-05-26T06:20:27.583Z,8.27
2018-05-26T06:22:56.040Z,6.97
2018-05-26T06:25:24.443Z,5.67
2018-05-26T06:27:52.887Z,5.97
2018-05-26T06:30:22.071Z,5.80
2018-05-26T06:32:50.459Z,6.30
2018-05-26T06:35:18.939Z,5.07
2018-05-26T06:37:47.767Z,5.67
2018-05-26T06:40:16.149Z,5.60
2018-05-26T06:42:44.619Z,6.30
2018-05-26T06:45:13.252Z,5.80
2018-05-26T06:47:41.651Z,5.67
2018-05-26T06:50:10.026Z,6.10
2018-05-26T06:52:38.813Z,5.10
2018-05-26T06:55:07.233Z,4.83
2018-05-26T06:57:35.707Z,5.53
2018-05-26T07:00:04.443Z,6.10
2018-05-26T07:02:32.893Z,4.93
2018-05-26T07:05:01.261Z,5.37
2018-05-26T07:07:29.896Z,5.10
2018-05-26T07:09:58.360Z,4.90
2018-05-26T07:12:26.872Z,6.37
2018-05-26T07:14:55.663Z,4.67
2018-05-26T07:17:24.055Z,4.97
2018-05-26T07:19:52.584Z,5.80
2018-05-26T07:22:21.795Z,5.90
2018-05-26T07:24:50.192Z,5.17
2018-05-26T07:27:18.608Z,5.60
2018-05-26T07:29:47.104Z,6.83
2018-05-26T07:32:15.517Z,6.67
2018-05-26T07:34:43.923Z,6.80
2018-05-26T07:37:12.812Z,7.07
2018-05-26T07:39:41.223Z,5.30
2018-05-26T07:42:09.728Z,6.13
2018-05-26T07:44:38.185Z,4.93
2018-05-26T07:47:06.615Z,5.20
2018-05-26T07:49:35.063Z,4.90
2018-05-26T07:52:03.804Z,5.87
2018-05-26T07:54:32.217Z,6.07
2018-05-26T07:57:00.649Z,5.78
2018-05-26T07:59:29.503Z,5.93
2018-05-26T08:01:57.923Z,6.20
2018-05-26T08:04:26.360Z,6.07
2018-05-26T08:06:55.122Z,5.53
2018-05-26T08:09:23.686Z,5.55
2018-05-26T08:11:52.094Z,5.82
2018-05-26T08:14:20.774Z,6.57
2018-05-26T08:16:49.207Z,5.95
2018-05-26T08:19:17.592Z,7.15
2018-05-26T08:21:46.201Z,6.25
2018-05-26T08:24:14.608Z,6.12
2018-05-26T08:26:42.992Z,5.43
2018-05-26T08:29:11.688Z,5.32
2018-05-26T08:31:40.078Z,5.65
2018-05-26T08:34:08.460Z,5.13
2018-05-26T08:36:36.856Z,5.18
2018-05-26T08:39:05.312Z,5.23
2018-05-26T08:41:33.956Z,6.00
2018-05-26T08:44:02.371Z,5.10
2018-05-26T08:46:30.843Z,5.43
2018-05-26T08:48:59.507Z,5.53
2018-05-26T08:51:27.903Z,5.97
2018-05-26T08:53:56.322Z,5.78
2018-05-26T08:56:24.944Z,5.18
2018-05-26T08:58:53.343Z,5.15
2018-05-26T09:01:21.742Z,5.22
2018-05-26T09:03:50.204Z,5.18
2018-05-26T09:06:18.628Z,5.07
2018-05-26T09:08:47.047Z,8.25
2018-05-26T09:11:15.675Z,4.82
2018-05-26T09:13:44.052Z,5.22
2018-05-26T09:16:12.456Z,4.90
2018-05-26T09:18:41.189Z,6.43
2018-05-26T09:21:09.632Z,5.35
2018-05-26T09:23:38.015Z,5.32
2018-05-26T09:26:06.842Z,5.20
2018-05-26T09:28:35.240Z,4.25
2018-05-26T09:31:03.648Z,5.12
2018-05-26T09:33:32.379Z,5.28
2018-05-26T09:36:00.780Z,5.35
2018-05-26T09:38:29.175Z,5.43
2018-05-26T09:40:57.608Z,5.12
2018-05-26T09:43:26.015Z,4.75
2018-05-26T09:45:54.415Z,5.15
2018-05-26T09:48:22.878Z,4.82
2018-05-26T09:50:51.284Z,4.10
2018-05-26T09:53:19.712Z,5.85
2018-05-26T09:55:48.519Z,4.47
2018-05-26T09:58:16.921Z,4.43
2018-05-26T10:00:45.335Z,5.85
2018-05-26T10:03:14.173Z,4.60
2018-05-26T10:05:42.568Z,3.80
2018-05-26T10:08:10.966Z,5.07
2018-05-26T10:10:39.714Z,4.40
2018-05-26T10:13:08.099Z,5.80
2018-05-26T10:15:36.479Z,3.78
2018-05-26T10:18:04.940Z,4.50
2018-05-26T10:20:33.362Z,4.35
2018-05-26T10:23:01.945Z,3.72
2018-05-26T10:25:30.604Z,4.15
2018-05-26T10:27:58.991Z,3.97
2018-05-26T10:30:27.396Z,3.72
2018-05-26T10:32:55.987Z,4.22
2018-05-26T10:35:24.371Z,3.53
2018-05-26T10:37:52.890Z,3.78
2018-05-26T10:40:21.724Z,3.80
2018-05-26T10:42:50.187Z,4.87
2018-05-26T10:48:13.336Z,5.40
2018-05-26T10:50:42.159Z,3.78
2018-05-26T10:53:10.551Z,3.45
2018-05-26T10:55:39.066Z,3.95
2018-05-26T10:58:07.588Z,3.72
2018-05-26T11:00:35.976Z,3.72
2018-05-26T11:03:04.378Z,4.40
2018-05-26T11:05:33.147Z,4.15
2018-05-26T11:08:01.536Z,4.12
2018-05-26T11:10:30.020Z,4.00
2018-05-26T11:12:58.462Z,3.95
2018-05-26T11:15:26.862Z,4.35
2018-05-26T11:17:55.384Z,3.70
2018-05-26T11:20:24.865Z,3.67
2018-05-26T11:22:53.276Z,4.97
2018-05-26T11:25:21.687Z,3.90
2018-05-26T11:27:50.536Z,3.70
2018-05-26T11:30:19.081Z,5.55
2018-05-26T11:32:47.459Z,3.97
2018-05-26T11:35:15.875Z,3.87
2018-05-26T11:37:44.297Z,4.32
2018-05-26T11:40:12.698Z,3.70
2018-05-26T11:42:41.135Z,4.18
2018-05-26T11:45:09.563Z,4.05
2018-05-26T11:47:38.050Z,4.20
2018-05-26T11:50:06.960Z,4.22
2018-05-26T11:52:35.387Z,4.43
2018-05-26T11:55:03.798Z,3.78
2018-05-26T11:57:32.515Z,4.30
2018-05-26T12:00:00.940Z,4.12
2018-05-26T12:02:29.334Z,4.60
2018-05-26T12:04:57.766Z,4.50
2018-05-26T12:07:26.264Z,5.72
2018-05-26T12:09:54.664Z,4.20
2018-05-26T12:12:23.390Z,4.28
2018-05-26T12:14:51.798Z,4.37
2018-05-26T12:17:20.211Z,4.30
2018-05-26T12:19:49.054Z,4.15
2018-05-26T12:22:17.460Z,3.62
2018-05-26T12:24:46.046Z,4.60
2018-05-26T12:27:14.850Z,4.90
2018-05-26T12:29:43.235Z,4.43
2018-05-26T12:32:11.632Z,4.68
2018-05-26T12:34:40.287Z,4.10
2018-05-26T12:37:08.931Z,4.22
2018-05-26T12:39:37.331Z,5.60
2018-05-26T12:42:06.159Z,4.37
2018-05-26T12:44:34.783Z,4.40
2018-05-26T12:47:03.366Z,4.68
2018-05-26T12:49:32.142Z,6.53
2018-05-26T12:52:01.549Z,4.82
2018-05-26T12:54:29.936Z,3.92
2018-05-26T12:56:58.659Z,4.72
2018-05-26T12:59:27.069Z,5.15
2018-05-26T13:01:55.547Z,4.60
2018-05-26T13:04:24.159Z,4.53
2018-05-26T13:06:52.589Z,3.95
2018-05-26T13:09:21.004Z,6.12
2018-05-26T13:11:49.827Z,5.32
2018-05-26T13:14:18.215Z,4.55
2018-05-26T13:16:46.612Z,4.32
2018-05-26T13:19:15.399Z,4.65
2018-05-26T13:21:43.802Z,4.40
2018-05-26T13:24:12.179Z,4.68
2018-05-26T13:26:40.948Z,4.65
2018-05-26T13:29:09.349Z,4.22
2018-05-26T13:31:37.735Z,5.18
2018-05-26T13:34:06.483Z,4.78
2018-05-26T13:36:34.891Z,4.32
2018-05-26T13:39:03.327Z,4.22
2018-05-26T13:41:31.930Z,4.37
2018-05-26T13:44:00.367Z,3.90
2018-05-26T13:46:28.759Z,4.35
2018-05-26T13:48:57.226Z,5.18
2018-05-26T13:51:25.634Z,5.87
2018-05-26T13:53:54.043Z,4.70
2018-05-26T13:56:22.787Z,4.18
2018-05-26T13:58:51.176Z,4.43
2018-05-26T14:01:19.631Z,4.20
2018-05-26T14:03:48.298Z,5.25
2018-05-26T14:06:16.708Z,4.28
2018-05-26T14:08:45.097Z,4.20
2018-05-26T14:11:13.929Z,3.70
2018-05-26T14:13:42.359Z,4.82
2018-05-26T14:16:10.875Z,5.40
2018-05-26T14:18:39.587Z,4.60
2018-05-26T14:21:08.105Z,5.65
2018-05-26T14:23:36.536Z,5.05
2018-05-26T14:26:05.325Z,4.82
2018-05-26T14:28:33.743Z,4.40
2018-05-26T14:31:02.164Z,4.20
2018-05-26T14:33:30.972Z,4.78
2018-05-26T14:35:59.451Z,5.57
2018-05-26T14:38:27.876Z,5.20
2018-05-26T14:40:56.728Z,4.28
2018-05-26T14:43:25.152Z,4.37
2018-05-26T14:45:53.557Z,4.15
2018-05-26T14:48:22.002Z,4.28
2018-05-26T14:50:50.424Z,4.07
2018-05-26T14:53:18.835Z,4.80
2018-05-26T14:55:47.443Z,4.70
2018-05-26T14:58:15.924Z,3.87
2018-05-26T15:00:44.318Z,4.28
2018-05-26T15:03:13.547Z,4.15
2018-05-26T15:05:42.020Z,4.25
2018-05-26T15:08:10.522Z,4.47
2018-05-26T15:10:38.982Z,4.25
2018-05-26T15:13:07.505Z,4.43
2018-05-26T15:15:35.882Z,4.12
2018-05-26T15:18:04.357Z,5.15
2018-05-26T15:20:32.875Z,4.20
2018-05-26T15:23:01.402Z,5.32
2018-05-26T15:25:29.827Z,4.68
2018-05-26T15:27:58.243Z,4.35
2018-05-26T15:30:26.654Z,4.62
2018-05-26T15:32:55.139Z,4.18
2018-05-26T15:35:23.839Z,4.70
2018-05-26T15:37:52.271Z,4.28
2018-05-26T15:40:20.806Z,4.55
2018-05-26T15:42:50.303Z,5.20
2018-05-26T15:45:18.739Z,4.97
2018-05-26T15:47:47.164Z,5.60
2018-05-26T15:50:15.946Z,4.65
2018-05-26T15:52:44.412Z,5.32
2018-05-26T15:55:12.779Z,3.55
2018-05-26T15:57:41.536Z,5.15
2018-05-26T16:00:09.954Z,5.70
2018-05-26T16:02:38.403Z,7.45
2018-05-26T16:05:07.123Z,5.70
2018-05-26T16:07:35.553Z,5.82
2018-05-26T16:10:03.960Z,5.20
2018-05-26T16:12:32.729Z,6.28
2018-05-26T16:15:01.116Z,5.65
2018-05-26T16:17:29.533Z,6.97
2018-05-26T16:19:58.139Z,6.47
2018-05-26T16:22:26.591Z,4.57
2018-05-26T16:24:54.988Z,4.55
2018-05-26T16:27:23.640Z,5.07
2018-05-26T16:29:52.136Z,3.92
2018-05-26T16:32:20.523Z,4.12
2018-05-26T16:34:49.151Z,4.35
2018-05-26T16:37:17.550Z,4.37
2018-05-26T16:39:45.992Z,5.62
2018-05-26T16:42:14.416Z,4.12
2018-05-26T16:44:42.799Z,4.35
2018-05-26T16:47:11.186Z,4.78
2018-05-26T16:49:39.945Z,4.45
2018-05-26T16:52:08.378Z,4.70
2018-05-26T16:54:36.804Z,4.78
2018-05-26T16:57:05.788Z,4.65
2018-05-26T16:59:34.217Z,4.97
2018-05-26T17:02:02.747Z,5.62
2018-05-26T17:04:31.372Z,6.87
2018-05-26T17:06:59.812Z,5.62
2018-05-26T17:09:28.232Z,5.97
2018-05-26T17:11:57.008Z,4.85
2018-05-26T17:14:25.398Z,4.50
2018-05-26T17:16:53.813Z,5.07
2018-05-26T17:19:22.439Z,6.23
2018-05-26T17:21:50.844Z,4.90
2018-05-26T17:24:19.261Z,5.40
2018-05-26T17:26:47.852Z,5.03
2018-05-26T17:29:16.253Z,6.47
2018-05-26T17:31:44.652Z,4.97
2018-05-26T17:34:13.443Z,5.23
2018-05-26T17:36:41.877Z,5.67
2018-05-26T17:39:10.429Z,5.23
2018-05-26T17:41:39.118Z,5.30
2018-05-26T17:44:07.521Z,4.97
2018-05-26T17:46:35.922Z,5.57
2018-05-26T17:49:04.761Z,4.43
2018-05-26T17:51:33.176Z,4.87
2018-05-26T17:54:01.581Z,4.73
2018-05-26T17:56:30.190Z,4.77
2018-05-26T17:58:58.575Z,5.07
2018-05-26T18:01:26.964Z,5.23
2018-05-26T18:03:55.751Z,5.67
2018-05-26T18:06:24.144Z,5.10
2018-05-26T18:08:52.561Z,5.80
2018-05-26T18:11:20.991Z,6.07
2018-05-26T18:13:49.392Z,6.40
2018-05-26T18:16:17.781Z,5.37
2018-05-26T18:18:46.804Z,5.10
2018-05-26T18:21:15.246Z,4.93
2018-05-26T18:23:43.678Z,5.63
2018-05-26T18:26:12.123Z,4.93
2018-05-26T18:28:40.534Z,4.83
2018-05-26T18:31:09.079Z,4.83
2018-05-26T18:33:37.943Z,4.90
2018-05-26T18:36:06.345Z,5.80
2018-05-26T18:38:34.758Z,5.80
2018-05-26T18:41:03.579Z,6.03
2018-05-26T18:43:31.991Z,5.27
2018-05-26T18:46:00.379Z,5.63
2018-05-26T18:48:29.247Z,4.73
2018-05-26T18:50:57.639Z,4.77
2018-05-26T18:53:26.038Z,4.93
2018-05-26T18:55:54.679Z,4.97
2018-05-26T18:58:23.110Z,5.20
2018-05-26T19:00:51.497Z,5.77
2018-05-26T19:03:20.263Z,5.70
2018-05-26T19:05:48.650Z,5.80
2018-05-26T19:08:17.203Z,6.30
2018-05-26T19:10:46.076Z,5.70
2018-05-26T19:13:14.479Z,5.43
2018-05-26T19:15:42.956Z,5.20
2018-05-26T19:18:11.849Z,5.57
2018-05-26T19:20:40.275Z,5.40
2018-05-26T19:23:08.699Z,5.50
2018-05-26T19:25:37.528Z,4.83
2018-05-26T19:28:05.918Z,4.97
2018-05-26T19:30:34.302Z,5.73
2018-05-26T19:33:08.731Z,5.03
2018-05-26T19:35:37.135Z,5.77
2018-05-26T19:38:05.537Z,5.77
2018-05-26T19:40:34.424Z,6.63
2018-05-26T19:43:02.817Z,6.27
2018-05-26T19:45:31.251Z,5.60
2018-05-26T19:47:59.867Z,5.80
2018-05-26T19:50:28.248Z,5.97
2018-05-26T19:52:56.658Z,7.13
2018-05-26T19:55:25.273Z,6.13
2018-05-26T19:57:53.659Z,7.27
2018-05-26T20:00:22.739Z,6.90
2018-05-26T20:02:51.202Z,7.33
2018-05-26T20:05:19.590Z,7.93
2018-05-26T20:07:47.979Z,8.40
2018-05-26T20:10:16.832Z,7.20
2018-05-26T20:12:45.251Z,7.97
2018-05-26T20:15:13.640Z,6.97
2018-05-26T20:17:42.476Z,7.67
2018-05-26T20:20:10.898Z,7.90
2018-05-26T20:22:39.365Z,7.97
2018-05-26T20:25:07.812Z,7.63
2018-05-26T20:27:36.228Z,7.03
2018-05-26T20:30:04.763Z,6.87
2018-05-26T20:32:33.574Z,7.10
2018-05-26T20:35:01.947Z,6.97
2018-05-26T20:37:30.357Z,7.80
2018-05-26T20:39:59.041Z,7.47
2018-05-26T20:42:27.451Z,6.83
2018-05-26T20:44:55.844Z,6.77
2018-05-26T20:47:24.282Z,6.63
2018-05-26T20:49:52.696Z,6.17
2018-05-26T20:52:21.114Z,6.80
2018-05-26T20:54:49.552Z,6.50
2018-05-26T20:57:17.951Z,5.80
2018-05-26T20:59:46.393Z,6.43
2018-05-26T21:02:14.818Z,6.43
2018-05-26T21:04:43.198Z,6.40
2018-05-26T21:07:11.595Z,6.40
2018-05-26T21:09:40.069Z,6.73
2018-05-26T21:12:08.462Z,6.27
2018-05-26T21:14:36.861Z,6.40
2018-05-26T21:17:05.280Z,7.00
2018-05-26T21:19:33.687Z,6.73
2018-05-26T21:22:02.096Z,7.37
2018-05-26T21:24:30.785Z,7.20
2018-05-26T21:26:59.180Z,6.87
2018-05-26T21:29:27.591Z,7.17
2018-05-26T21:31:56.423Z,7.37
2018-05-26T21:34:24.820Z,7.60
2018-05-26T21:36:53.229Z,7.07
2018-05-26T21:39:21.655Z,7.60
2018-05-26T21:41:50.043Z,7.23
2018-05-26T21:44:18.473Z,7.50
2018-05-26T21:46:47.206Z,8.07
2018-05-26T21:49:15.646Z,8.03
2018-05-26T21:51:44.095Z,7.67
2018-05-26T21:54:12.972Z,7.53
2018-05-26T21:56:41.429Z,7.50
2018-05-26T21:59:09.848Z,7.10
2018-05-26T22:01:38.617Z,7.43
2018-05-26T22:04:07.020Z,7.63
2018-05-26T22:06:35.435Z,7.47
2018-05-26T22:09:03.944Z,8.83
2018-05-26T22:11:32.400Z,8.13
2018-05-26T22:14:00.811Z,7.43
2018-05-26T22:16:29.499Z,9.10
2018-05-26T22:18:57.922Z,7.50
2018-05-26T22:21:26.320Z,8.10
2018-05-26T22:23:54.936Z,7.47
2018-05-26T22:26:23.374Z,7.97
2018-05-26T22:28:51.806Z,8.10
2018-05-26T22:31:20.569Z,8.33
2018-05-26T22:33:48.982Z,7.83
2018-05-26T22:36:17.444Z,7.77
2018-05-26T22:38:45.915Z,7.67
2018-05-26T22:41:14.315Z,7.90
2018-05-26T22:43:42.764Z,7.97
2018-05-26T22:46:11.222Z,8.57
2018-05-26T22:48:39.653Z,9.03
2018-05-26T22:51:08.083Z,8.13
2018-05-26T22:53:36.883Z,8.20
2018-05-26T22:56:05.292Z,8.03
2018-05-26T22:58:33.699Z,8.73
2018-05-26T23:01:02.174Z,8.27
2018-05-26T23:03:30.597Z,7.90
2018-05-26T23:05:59.047Z,8.70
2018-05-26T23:08:27.755Z,8.17
2018-05-26T23:10:56.179Z,8.27
2018-05-26T23:13:24.601Z,8.13
2018-05-26T23:15:53.396Z,8.33
2018-05-26T23:18:21.819Z,8.63
2018-05-26T23:20:50.245Z,9.20
2018-05-26T23:23:18.709Z,9.63
2018-05-26T23:25:47.111Z,9.50
2018-05-26T23:28:15.517Z,9.10
2018-05-26T23:30:44.385Z,8.43
2018-05-26T23:33:12.796Z,7.93
2018-05-26T23:35:41.220Z,8.77
2018-05-26T23:38:09.672Z,8.37
2018-05-26T23:40:38.080Z,8.60
2018-05-26T23:43:06.517Z,8.73
2018-05-26T23:45:35.281Z,8.33
2018-05-26T23:48:03.736Z,7.17
2018-05-26T23:50:32.146Z,6.77
2018-05-26T23:53:00.929Z,6.63
2018-05-26T23:55:29.334Z,6.63
2018-05-26T23:57:57.746Z,6.10
